Time;durP1;ratioP1;P1;durP2;ratioP2;P2;SDS_P1;SDS_P2;PMS_P1;PMS_P2;Temp;Humidity;BMP_temperature;BMP_pressure;BME280_temperature;BME280_humidity;BME280_pressure;Samples;Min_cycle;Max_cycle;Signal;HPM_P1;HPM_P2
2022/10/22 00:01:10;;;;;;;0.68;0.60;;;;;;;13.61;53.16;100608.88;18304359;32;20117;-59
2022/10/22 00:11:17;;;;;;;0.73;0.50;;;;;;;13.64;53.90;100615.84;18304466;32;20103;-59
2022/10/22 00:21:20;;;;;;;0.52;0.52;;;;;;;13.60;54.31;100622.88;18304062;32;20085;-59
2022/10/22 00:31:25;;;;;;;0.50;0.50;;;;;;;13.58;54.18;100630.75;18302337;32;20094;-59
2022/10/22 00:41:28;;;;;;;0.50;0.50;;;;;;;13.45;55.41;100616.06;18303037;32;20131;-59
2022/10/22 00:51:34;;;;;;;0.45;0.30;;;;;;;13.50;55.73;100605.50;18302589;32;20410;-59
2022/10/22 01:01:37;;;;;;;0.40;0.40;;;;;;;13.21;57.08;100594.41;18301910;32;20098;-59
2022/10/22 01:11:53;;;;;;;0.50;0.50;;;;;;;13.12;57.37;100590.13;18301112;32;20116;-59
2022/10/22 01:21:59;;;;;;;0.65;0.65;;;;;;;13.02;57.84;100591.09;18300551;32;20086;-59
2022/10/22 01:32:08;;;;;;;0.50;0.50;;;;;;;13.06;57.75;100594.56;18300942;32;20098;-59
2022/10/22 01:42:12;;;;;;;0.80;0.80;;;;;;;13.07;58.01;100586.66;18300769;32;20100;-59
2022/10/22 01:52:26;;;;;;;0.50;0.50;;;;;;;13.01;58.29;100582.34;18309400;32;20094;-59
2022/10/22 02:02:39;;;;;;;0.50;0.50;;;;;;;12.97;58.25;100564.06;18308054;32;20361;-59
2022/10/22 02:12:45;;;;;;;0.60;0.60;;;;;;;12.88;59.23;100544.91;18307906;32;20131;-59
2022/10/22 02:22:48;;;;;;;1.55;1.35;;;;;;;12.89;58.34;100535.31;18307575;32;20093;-59
2022/10/22 02:32:57;;;;;;;0.60;0.60;;;;;;;12.75;58.64;100553.78;18308229;32;20375;-59
2022/10/22 02:43:01;;;;;;;0.50;0.50;;;;;;;12.64;58.41;100540.78;18294663;32;20108;-59
2022/10/22 02:53:05;;;;;;;0.47;0.47;;;;;;;12.42;58.79;100561.91;18263256;32;20176;-59
2022/10/22 03:03:08;;;;;;;0.50;0.50;;;;;;;12.30;58.79;100577.69;18243214;32;20140;-59
2022/10/22 03:13:13;;;;;;;0.50;0.50;;;;;;;12.00;59.25;100606.59;18243029;32;20106;-59
2022/10/22 03:23:19;;;;;;;0.43;0.43;;;;;;;11.42;60.03;100598.09;18242567;32;20102;-59
2022/10/22 03:33:23;;;;;;;0.62;0.62;;;;;;;11.15;61.90;100589.44;18242548;32;20481;-59
2022/10/22 03:43:26;;;;;;;0.60;0.60;;;;;;;11.14;61.34;100579.87;18242556;32;20074;-58
2022/10/22 03:53:31;;;;;;;0.50;0.50;;;;;;;10.90;61.46;100565.94;18241905;32;20110;-59
2022/10/22 04:03:34;;;;;;;0.82;0.80;;;;;;;10.72;61.99;100537.22;18268560;32;20514;-59
2022/10/22 04:13:39;;;;;;;0.50;0.50;;;;;;;10.76;61.73;100558.13;18236295;32;20145;-59
2022/10/22 04:23:45;;;;;;;4.57;0.85;;;;;;;10.65;62.31;100562.47;18235063;32;20438;-59
2022/10/22 04:33:52;;;;;;;1.90;1.75;;;;;;;10.72;62.41;100545.06;18240324;32;20236;-59
2022/10/22 04:43:56;;;;;;;0.60;0.60;;;;;;;10.66;62.33;100567.72;18239938;32;20439;-59
2022/10/22 04:54:01;;;;;;;0.60;0.60;;;;;;;10.48;62.43;100570.31;18239158;32;20090;-59
2022/10/22 05:04:06;;;;;;;0.50;0.50;;;;;;;10.30;62.57;100577.22;18240318;32;20096;-59
2022/10/22 05:14:10;;;;;;;0.50;0.50;;;;;;;10.20;62.94;100554.59;18295242;32;20116;-59
2022/10/22 05:24:13;;;;;;;0.82;0.57;;;;;;;10.04;63.04;100544.09;18300840;32;20443;-59
2022/10/22 05:34:18;;;;;;;0.60;0.60;;;;;;;9.87;63.60;100564.94;18305657;32;20089;-59
2022/10/22 05:44:21;;;;;;;0.37;0.37;;;;;;;9.84;63.78;100564.94;18305590;32;20112;-59
2022/10/22 05:54:26;;;;;;;0.70;0.70;;;;;;;9.95;63.57;100576.25;18304709;32;20116;-59
2022/10/22 06:04:29;;;;;;;1.37;1.33;;;;;;;10.02;63.71;100581.50;18304577;32;20121;-59
2022/10/22 06:14:33;;;;;;;0.88;0.88;;;;;;;10.14;63.91;100581.53;18303756;32;20155;-59
2022/10/22 06:24:37;;;;;;;0.40;0.40;;;;;;;10.66;63.60;100609.50;18301393;32;20370;-60
2022/10/22 06:34:47;;;;;;;0.62;0.62;;;;;;;10.82;63.40;100612.12;18303080;32;20128;-59
2022/10/22 06:44:50;;;;;;;0.70;0.70;;;;;;;11.51;62.89;100590.25;18304246;32;20090;-59
2022/10/22 06:54:54;;;;;;;0.62;0.57;;;;;;;12.46;62.04;100602.87;18302490;32;20369;-60
2022/10/22 07:04:57;;;;;;;1.10;1.02;;;;;;;13.66;60.33;100609.72;18303427;32;20153;-60
2022/10/22 07:15:02;;;;;;;0.98;0.93;;;;;;;14.72;56.70;100605.63;18302707;32;20141;-60
2022/10/22 07:25:05;;;;;;;0.50;0.50;;;;;;;14.46;56.15;100603.37;18303505;32;20098;-59
2022/10/22 07:35:11;;;;;;;0.30;0.30;;;;;;;14.20;56.87;100604.66;18301634;32;20093;-59
2022/10/22 07:45:14;;;;;;;0.32;0.32;;;;;;;14.20;57.25;100615.16;18301707;32;20724;-60
2022/10/22 07:55:19;;;;;;;0.57;0.57;;;;;;;13.97;56.49;100579.56;18301731;32;20425;-60
2022/10/22 08:05:22;;;;;;;0.45;0.45;;;;;;;15.18;51.64;100592.63;18300468;32;20745;-59
2022/10/22 08:15:27;;;;;;;0.13;0.13;;;;;;;15.59;49.45;100576.91;18273675;32;20116;-59
2022/10/22 08:25:30;;;;;;;0.50;0.50;;;;;;;15.86;47.82;100569.34;18302608;32;20469;-59
2022/10/22 08:35:35;;;;;;;0.30;0.30;;;;;;;16.08;45.86;100581.19;18297998;32;20141;-59
2022/10/22 08:45:41;;;;;;;0.82;0.50;;;;;;;16.59;45.11;100591.41;18300537;32;20121;-59
2022/10/22 08:55:45;;;;;;;0.30;0.30;;;;;;;16.46;45.77;100591.72;18299099;32;20093;-59
2022/10/22 09:05:56;;;;;;;0.43;0.43;;;;;;;16.60;46.39;100594.03;18296441;32;20499;-59
2022/10/22 09:16:08;;;;;;;0.30;0.30;;;;;;;16.78;46.22;100591.84;18165603;32;20410;-59
2022/10/22 09:26:14;;;;;;;0.40;0.40;;;;;;;16.54;46.38;100578.34;18163848;32;20200;-59
2022/10/22 09:36:22;;;;;;;0.50;0.50;;;;;;;16.81;46.57;100597.03;18256136;32;20130;-57
2022/10/22 09:46:28;;;;;;;0.77;0.77;;;;;;;17.20;45.76;100598.72;18297719;32;20454;-57
2022/10/22 09:56:36;;;;;;;0.32;0.32;;;;;;;17.39;45.19;100599.06;18296994;32;20081;-57
2022/10/22 10:06:41;;;;;;;0.82;0.65;;;;;;;17.29;45.30;100593.19;18303555;32;20108;-57
2022/10/22 10:16:56;;;;;;;0.35;0.35;;;;;;;17.41;45.44;100588.50;18305271;32;20148;-58
2022/10/22 10:27:03;;;;;;;0.85;0.82;;;;;;;17.80;45.81;100576.84;18306845;32;20175;-57
2022/10/22 10:37:17;;;;;;;1.85;0.50;;;;;;;17.90;45.59;100549.25;18306567;32;20725;-58
2022/10/22 10:47:32;;;;;;;0.30;0.30;;;;;;;17.95;44.50;100557.03;18307834;32;20117;-58
2022/10/22 10:57:42;;;;;;;0.62;0.47;;;;;;;18.05;45.01;100566.44;18305240;32;20096;-58
2022/10/22 11:07:49;;;;;;;0.30;0.30;;;;;;;17.95;45.78;100575.53;18305708;32;20138;-58
2022/10/22 11:18:03;;;;;;;1.27;1.20;;;;;;;17.96;45.76;100571.97;18298849;32;152436;-58
2022/10/22 11:28:11;;;;;;;0.30;0.30;;;;;;;18.02;45.32;100583.19;18299308;32;20085;-58
2022/10/22 11:38:17;;;;;;;1.90;1.35;;;;;;;18.03;46.48;100566.47;18305683;32;20159;-58
2022/10/22 11:48:27;;;;;;;0.80;0.80;;;;;;;18.13;46.58;100558.25;18302150;32;20354;-58
2022/10/22 11:58:33;;;;;;;0.50;0.50;;;;;;;18.27;45.64;100541.97;18299633;32;20438;-58
2022/10/22 12:08:42;;;;;;;0.40;0.40;;;;;;;18.47;46.24;100540.47;18299992;32;20093;-58
2022/10/22 12:18:47;;;;;;;0.30;0.30;;;;;;;18.62;46.17;100545.25;18301540;32;20430;-58
2022/10/22 12:28:50;;;;;;;2.03;1.10;;;;;;;18.63;46.33;100530.22;18300290;32;20137;-58
2022/10/22 12:38:55;;;;;;;1.27;0.68;;;;;;;18.78;47.21;100518.25;18302964;32;20112;-58
2022/10/22 12:48:59;;;;;;;0.70;0.70;;;;;;;18.68;46.13;100497.41;18302349;32;20092;-58
2022/10/22 12:59:07;;;;;;;5.78;1.12;;;;;;;18.58;46.60;100511.87;18300724;32;20494;-58
2022/10/22 13:09:17;;;;;;;0.73;0.40;;;;;;;18.39;47.59;100530.16;18300075;32;20374;-59
2022/10/22 13:19:48;;;;;;;1.40;0.82;;;;;;;18.23;48.34;100537.72;18296611;32;20094;-59
2022/10/22 13:29:51;;;;;;;0.52;0.52;;;;;;;18.11;49.42;100529.25;18288864;32;20089;-59
2022/10/22 13:39:55;;;;;;;2.70;0.70;;;;;;;18.15;49.01;100546.75;18298910;32;20167;-59
2022/10/22 13:50:02;;;;;;;0.40;0.40;;;;;;;17.91;49.66;100536.88;18304961;32;20129;-60
2022/10/22 14:00:11;;;;;;;0.47;0.47;;;;;;;17.73;50.48;100523.34;18299967;32;20441;-59
2022/10/22 14:10:16;;;;;;;2.15;0.62;;;;;;;17.73;50.35;100533.91;18302554;32;20118;-59
2022/10/22 14:20:23;;;;;;;0.30;0.30;;;;;;;17.56;51.03;100547.59;18304143;32;20117;-59
2022/10/22 14:30:28;;;;;;;0.65;0.65;;;;;;;17.51;51.58;100545.09;18302896;32;20104;-59
2022/10/22 14:40:33;;;;;;;0.70;0.52;;;;;;;17.61;51.21;100545.72;18303705;32;20129;-59
2022/10/22 14:50:36;;;;;;;0.47;0.40;;;;;;;17.24;52.71;100528.28;18302766;32;20094;-59
2022/10/22 15:00:42;;;;;;;2.35;1.60;;;;;;;17.33;51.74;100551.78;18303301;32;20465;-59
2022/10/22 15:10:45;;;;;;;1.65;0.55;;;;;;;17.06;53.12;100549.81;18299882;32;20093;-59
2022/10/22 15:20:56;;;;;;;0.85;0.85;;;;;;;16.98;54.03;100541.25;18302104;32;20811;-59
2022/10/22 15:31:00;;;;;;;2.03;1.13;;;;;;;17.05;55.16;100548.09;18296908;32;20132;-59
2022/10/22 15:41:06;;;;;;;0.73;0.73;;;;;;;17.10;56.36;100558.53;18300597;32;20174;-59
2022/10/22 15:51:11;;;;;;;0.40;0.40;;;;;;;16.87;58.25;100561.75;18301254;32;20101;-59
2022/10/22 16:01:16;;;;;;;0.70;0.43;;;;;;;16.55;60.52;100573.97;18300646;32;20086;-59
2022/10/22 16:11:19;;;;;;;0.43;0.37;;;;;;;16.31;61.73;100573.63;18302012;32;20711;-59
2022/10/22 16:21:24;;;;;;;1.83;0.88;;;;;;;16.07;63.80;100589.13;18300328;32;20188;-59
2022/10/22 16:31:28;;;;;;;0.47;0.47;;;;;;;15.94;65.05;100610.44;18300685;32;20159;-59
2022/10/22 16:41:35;;;;;;;0.73;0.73;;;;;;;15.94;65.75;100643.78;18303620;32;20097;-58
2022/10/22 16:51:38;;;;;;;0.80;0.80;;;;;;;15.80;66.94;100665.09;18303805;32;20085;-59
2022/10/22 17:01:42;;;;;;;0.30;0.30;;;;;;;15.87;66.71;100664.09;18302324;32;20097;-58
2022/10/22 17:11:46;;;;;;;0.60;0.60;;;;;;;15.77;67.18;100680.97;18302145;32;20093;-58
2022/10/22 17:21:52;;;;;;;1.37;0.95;;;;;;;15.77;66.95;100686.22;18309033;32;20105;-58
2022/10/22 17:31:55;;;;;;;0.98;0.95;;;;;;;15.55;68.34;100670.81;18305869;32;20106;-60
2022/10/22 17:42:00;;;;;;;1.33;1.10;;;;;;;15.56;67.99;100688.37;18303720;32;20125;-59
2022/10/22 17:52:03;;;;;;;0.52;0.52;;;;;;;15.57;68.08;100683.97;18302559;32;20101;-59
2022/10/22 18:02:10;;;;;;;0.35;0.35;;;;;;;15.47;68.34;100699.91;18301718;32;20089;-59
2022/10/22 18:12:13;;;;;;;1.35;1.27;;;;;;;15.25;69.14;100710.81;18297034;32;20089;-59
2022/10/22 18:22:18;;;;;;;0.70;0.70;;;;;;;15.34;68.46;100708.94;18300402;32;20094;-59
2022/10/22 18:32:21;;;;;;;0.73;0.73;;;;;;;15.05;69.36;100723.41;18300651;32;20468;-59
2022/10/22 18:42:26;;;;;;;0.73;0.62;;;;;;;15.12;68.86;100725.03;18302417;32;20098;-59
2022/10/22 18:52:35;;;;;;;0.65;0.65;;;;;;;14.96;69.20;100724.41;18302754;32;20093;-59
2022/10/22 19:02:39;;;;;;;1.50;1.17;;;;;;;15.00;68.85;100746.28;18302719;32;20085;-57
2022/10/22 19:12:43;;;;;;;1.85;1.05;;;;;;;14.92;69.25;100760.38;18302970;32;20762;-57
2022/10/22 19:22:49;;;;;;;0.35;0.35;;;;;;;14.26;71.49;100775.22;18303649;32;20133;-57
2022/10/22 19:32:53;;;;;;;2.62;1.20;;;;;;;14.62;69.42;100756.41;18300846;32;20101;-58
2022/10/22 19:42:57;;;;;;;0.62;0.62;;;;;;;14.40;69.23;100772.44;18301379;32;20507;-57
2022/10/22 19:53:01;;;;;;;1.00;0.93;;;;;;;14.28;69.95;100779.56;18302115;32;20458;-57
2022/10/22 20:03:06;;;;;;;0.50;0.50;;;;;;;14.37;68.59;100788.22;18301803;32;20369;-57
2022/10/22 20:13:09;;;;;;;0.85;0.77;;;;;;;14.20;68.45;100796.31;18299975;32;20394;-57
2022/10/22 20:23:14;;;;;;;0.52;0.52;;;;;;;13.75;69.37;100805.50;18301319;32;20140;-57
2022/10/22 20:33:17;;;;;;;0.40;0.40;;;;;;;13.77;69.71;100823.84;18301429;32;20117;-57
2022/10/22 20:43:21;;;;;;;1.25;0.90;;;;;;;13.77;69.12;100832.56;18300132;32;20117;-57
2022/10/22 20:53:24;;;;;;;0.82;0.57;;;;;;;13.50;69.56;100841.53;18297558;32;20434;-57
2022/10/22 21:03:29;;;;;;;0.80;0.80;;;;;;;13.13;71.93;100843.50;18295124;32;20131;-57
2022/10/22 21:13:32;;;;;;;2.22;2.05;;;;;;;13.78;72.46;100836.09;18295903;32;20112;-57
2022/10/22 21:23:37;;;;;;;1.15;1.10;;;;;;;14.03;71.37;100831.47;18294521;32;20097;-59
2022/10/22 21:33:40;;;;;;;0.30;0.30;;;;;;;13.98;71.46;100856.88;18294528;32;20140;-57
2022/10/22 21:43:45;;;;;;;0.57;0.57;;;;;;;14.28;69.55;100863.59;18293817;32;20121;-57
2022/10/22 21:53:48;;;;;;;0.62;0.60;;;;;;;14.20;68.57;100865.44;18294205;32;20728;-57
2022/10/22 22:03:53;;;;;;;1.05;1.02;;;;;;;13.63;70.27;100855.44;18300237;32;20378;-57
2022/10/22 22:13:57;;;;;;;0.98;0.88;;;;;;;13.96;72.04;100862.16;18300294;32;20239;-58
2022/10/22 22:24:02;;;;;;;0.50;0.50;;;;;;;14.33;71.20;100849.56;18302097;32;20484;-57
2022/10/22 22:34:07;;;;;;;0.82;0.75;;;;;;;14.40;70.84;100849.47;18301187;32;20105;-57
2022/10/22 22:44:12;;;;;;;0.60;0.60;;;;;;;14.24;69.30;100882.03;18301709;32;20129;-57
2022/10/22 22:54:15;;;;;;;0.73;0.60;;;;;;;14.19;69.41;100871.56;18300844;32;20090;-57
2022/10/22 23:04:22;;;;;;;1.23;1.12;;;;;;;14.26;69.06;100886.38;18298733;32;20394;-58
2022/10/22 23:14:25;;;;;;;2.37;1.75;;;;;;;14.15;69.06;100909.25;18300638;32;20089;-58
2022/10/22 23:24:30;;;;;;;0.50;0.50;;;;;;;13.92;68.83;100902.44;18299711;32;20104;-57
2022/10/22 23:34:33;;;;;;;0.60;0.60;;;;;;;13.38;71.80;100887.03;18298883;32;20151;-57
2022/10/22 23:44:38;;;;;;;0.60;0.57;;;;;;;13.43;72.75;100903.62;18299637;32;20070;-57
2022/10/22 23:54:41;;;;;;;0.75;0.75;;;;;;;13.20;73.57;100916.88;18299620;32;20105;-57
